Toyo Maru — JI3710 — position and weather

sailwx.info

Track history (hours):
 
Tides and Currents Weather Stations Pressure Air Temp Water Temp Dewpoint Dewpoint Depression Visibility Wind Speed Wind Dir Waves Ship Positions

Toyo Maru

Last reported at 2015-Aug-30 11:33 UTC. Time now 2015-Aug-31 21:49 UTC.
Position N 35°11' E 139°46'.

Length 125 m; draft 6 m.

Type: Cargo ship. MMSI: 431401953.

Date/timePositionNaut miles runAvg speedWind from/ knotsBaromVisibWave heightAir tempDewpointWater temp
2015-Aug-30 11:33N 35°11' E 139°46'1313.1
2015-Aug-30 10:33N 35°24' E 139°43'1818.1
2015-Aug-30 09:33N 35°34' E 140°02'4 3.9
2015-Aug-30 08:32N 35°36' E 140°06'0 0.0
2015-Aug-30 07:29N 35°36' E 140°06'0 0.0
2015-Aug-30 06:32N 35°36' E 140°06'0 0.0
2015-Aug-30 05:26N 35°36' E 140°06'1 1.4
2015-Aug-30 04:31N 35°37' E 140°05'0 0.0
2015-Aug-30 03:25N 35°37' E 140°05'0 0.0
2015-Aug-30 02:25N 35°37' E 140°05'0 0.0
2015-Aug-30 01:31N 35°37' E 140°05'0 0.0
2015-Aug-30 00:31N 35°37' E 140°05'0 0.0
2015-Aug-29 23:31N 35°37' E 140°05'0 0.0
2015-Aug-29 22:25N 35°37' E 140°05'0 0.0
2015-Aug-29 21:31N 35°37' E 140°05'0 0.0
2015-Aug-29 20:19N 35°37' E 140°05'0 0.0
2015-Aug-29 19:33N 35°37' E 140°05'1313.1
2015-Aug-29 18:33N 35°29' E 139°52'1313.0
2015-Aug-29 17:33N 35°17' E 139°45'  
2015-Aug-26 04:24N 34°54' E 139°25'1517.8
2015-Aug-26 03:33N 35°04' E 139°39'1414.2
2015-Aug-26 02:33N 35°18' E 139°44'1414.2
2015-Aug-26 01:33N 35°30' E 139°53'8 8.3
2015-Aug-26 00:33N 35°35' E 140°01'0 0.0
2015-Aug-25 23:33N 35°35' E 140°01'0 0.0
2015-Aug-25 22:33N 35°35' E 140°01'0 0.0
2015-Aug-25 21:33N 35°35' E 140°01'0 0.0
2015-Aug-25 20:27N 35°35' E 140°01'0 0.0
2015-Aug-25 19:33N 35°35' E 140°01'0 0.0
2015-Aug-25 18:33N 35°35' E 140°01'0 0.0
2015-Aug-25 17:27N 35°35' E 140°01'0 0.0
2015-Aug-25 16:33N 35°35' E 140°01'0 0.0
2015-Aug-25 15:27N 35°35' E 140°01'0 0.0
2015-Aug-25 14:33N 35°35' E 140°01'0 0.0
2015-Aug-25 13:27N 35°35' E 140°01'0 0.0
2015-Aug-25 12:33N 35°35' E 140°01'0 0.0
2015-Aug-25 11:33N 35°35' E 140°01'0 0.0
2015-Aug-25 10:33N 35°35' E 140°01'0 0.0
2015-Aug-25 09:33N 35°35' E 140°01'0 0.0
2015-Aug-25 08:27N 35°35' E 140°01'4 4.0
2015-Aug-25 07:22N 35°36' E 140°06'0 0.0
2015-Aug-25 06:28N 35°36' E 140°06'0 0.0
2015-Aug-25 05:28N 35°36' E 140°06'0 0.5
2015-Aug-25 04:34N 35°35' E 140°06'1 1.3
2015-Aug-25 03:31N 35°37' E 140°05'0 0.0
2015-Aug-25 02:31N 35°37' E 140°05'0 0.0
2015-Aug-25 01:31N 35°37' E 140°05'0 0.0
2015-Aug-25 00:31N 35°37' E 140°05'0 0.0
2015-Aug-24 23:24N 35°37' E 140°05'0 0.0
2015-Aug-24 22:30N 35°37' E 140°05'0 0.0
2015-Aug-24 21:24N 35°37' E 140°05'0 0.0
2015-Aug-24 20:30N 35°37' E 140°05'0 0.0
2015-Aug-24 19:24N 35°37' E 140°05'0 0.0
2015-Aug-24 18:30N 35°37' E 140°05'0 0.0
2015-Aug-24 17:18N 35°37' E 140°05'0 0.0
2015-Aug-24 16:30N 35°37' E 140°05'0 0.0
2015-Aug-24 15:30N 35°37' E 140°05'0 0.0
2015-Aug-24 14:30N 35°37' E 140°05'0 0.0
2015-Aug-24 13:30N 35°37' E 140°05'0 0.0
2015-Aug-24 12:30N 35°37' E 140°05'4 4.1
2015-Aug-24 11:33N 35°34' E 140°02'1615.8
2015-Aug-24 10:33N 35°24' E 139°46'1212.0
2015-Aug-24 09:33N 35°12' E 139°47'1816.7
2015-Aug-24 08:29N 34°58' E 139°33'24114.8
2015-Aug-23 16:16N 34°04' E 134°48'237 4.6
2015-Aug-21 13:21N 34°56' E 139°28'1316.6
2015-Aug-21 12:33N 35°05' E 139°40'1413.6
2015-Aug-21 11:33N 35°18' E 139°44'1414.2
2015-Aug-21 10:34N 35°30' E 139°52'1312.5
2015-Aug-21 09:33N 35°36' E 140°06'0 0.0
2015-Aug-21 08:32N 35°36' E 140°06'0 0.0
2015-Aug-21 07:29N 35°36' E 140°06'0 0.0
2015-Aug-21 06:29N 35°36' E 140°06'1 1.1
2015-Aug-21 05:20N 35°37' E 140°05'0 0.0
2015-Aug-21 04:26N 35°37' E 140°05'0 0.0
2015-Aug-21 03:32N 35°37' E 140°05'0 0.0
2015-Aug-21 02:32N 35°37' E 140°05'0 0.0
2015-Aug-21 01:32N 35°37' E 140°05'0 0.0
2015-Aug-21 00:32N 35°37' E 140°05'0 0.0
2015-Aug-20 23:32N 35°37' E 140°05'0 0.0
2015-Aug-20 22:20N 35°37' E 140°05'0 0.0
2015-Aug-20 21:34N 35°37' E 140°05'1010.3
2015-Aug-20 20:33N 35°31' E 139°55'1514.2
2015-Aug-20 19:32N 35°19' E 139°44'1111.7
2015-Aug-20 18:33N 35°08' E 139°46'  
Track history (hours):
 
Tides and Currents Weather Stations Pressure Air Temp Water Temp Dewpoint Dewpoint Depression Visibility Wind Speed Wind Dir Waves Ship Positions

Toyo Maru

Last reported at 2015-Aug-30 11:33 UTC. Time now 2015-Aug-31 21:49 UTC.
Position N 35°11' E 139°46'.

Length 125 m; draft 6 m.

Type: Cargo ship. MMSI: 431401953.

Date/timePositionNaut miles runAvg speedWind from/ knotsBaromVisibWave heightAir tempDewpointWater temp
2015-Aug-30 11:33N 35°11' E 139°46'1313.1
2015-Aug-30 10:33N 35°24' E 139°43'1818.1
2015-Aug-30 09:33N 35°34' E 140°02'4 3.9
2015-Aug-30 08:32N 35°36' E 140°06'0 0.0
2015-Aug-30 07:29N 35°36' E 140°06'0 0.0
2015-Aug-30 06:32N 35°36' E 140°06'0 0.0
2015-Aug-30 05:26N 35°36' E 140°06'1 1.4
2015-Aug-30 04:31N 35°37' E 140°05'0 0.0
2015-Aug-30 03:25N 35°37' E 140°05'0 0.0
2015-Aug-30 02:25N 35°37' E 140°05'0 0.0
2015-Aug-30 01:31N 35°37' E 140°05'0 0.0
2015-Aug-30 00:31N 35°37' E 140°05'0 0.0
2015-Aug-29 23:31N 35°37' E 140°05'0 0.0
2015-Aug-29 22:25N 35°37' E 140°05'0 0.0
2015-Aug-29 21:31N 35°37' E 140°05'0 0.0
2015-Aug-29 20:19N 35°37' E 140°05'0 0.0
2015-Aug-29 19:33N 35°37' E 140°05'1313.1
2015-Aug-29 18:33N 35°29' E 139°52'1313.0
2015-Aug-29 17:33N 35°17' E 139°45'  
2015-Aug-26 04:24N 34°54' E 139°25'1517.8
2015-Aug-26 03:33N 35°04' E 139°39'1414.2
2015-Aug-26 02:33N 35°18' E 139°44'1414.2
2015-Aug-26 01:33N 35°30' E 139°53'8 8.3
2015-Aug-26 00:33N 35°35' E 140°01'0 0.0
2015-Aug-25 23:33N 35°35' E 140°01'0 0.0
2015-Aug-25 22:33N 35°35' E 140°01'0 0.0
2015-Aug-25 21:33N 35°35' E 140°01'0 0.0
2015-Aug-25 20:27N 35°35' E 140°01'0 0.0
2015-Aug-25 19:33N 35°35' E 140°01'0 0.0
2015-Aug-25 18:33N 35°35' E 140°01'0 0.0
2015-Aug-25 17:27N 35°35' E 140°01'0 0.0
2015-Aug-25 16:33N 35°35' E 140°01'0 0.0
2015-Aug-25 15:27N 35°35' E 140°01'0 0.0
2015-Aug-25 14:33N 35°35' E 140°01'0 0.0
2015-Aug-25 13:27N 35°35' E 140°01'0 0.0
2015-Aug-25 12:33N 35°35' E 140°01'0 0.0
2015-Aug-25 11:33N 35°35' E 140°01'0 0.0
2015-Aug-25 10:33N 35°35' E 140°01'0 0.0
2015-Aug-25 09:33N 35°35' E 140°01'0 0.0
2015-Aug-25 08:27N 35°35' E 140°01'4 4.0
2015-Aug-25 07:22N 35°36' E 140°06'0 0.0
2015-Aug-25 06:28N 35°36' E 140°06'0 0.0
2015-Aug-25 05:28N 35°36' E 140°06'0 0.5
2015-Aug-25 04:34N 35°35' E 140°06'1 1.3
2015-Aug-25 03:31N 35°37' E 140°05'0 0.0
2015-Aug-25 02:31N 35°37' E 140°05'0 0.0
2015-Aug-25 01:31N 35°37' E 140°05'0 0.0
2015-Aug-25 00:31N 35°37' E 140°05'0 0.0
2015-Aug-24 23:24N 35°37' E 140°05'0 0.0
2015-Aug-24 22:30N 35°37' E 140°05'0 0.0
2015-Aug-24 21:24N 35°37' E 140°05'0 0.0
2015-Aug-24 20:30N 35°37' E 140°05'0 0.0
2015-Aug-24 19:24N 35°37' E 140°05'0 0.0
2015-Aug-24 18:30N 35°37' E 140°05'0 0.0
2015-Aug-24 17:18N 35°37' E 140°05'0 0.0
2015-Aug-24 16:30N 35°37' E 140°05'0 0.0
2015-Aug-24 15:30N 35°37' E 140°05'0 0.0
2015-Aug-24 14:30N 35°37' E 140°05'0 0.0
2015-Aug-24 13:30N 35°37' E 140°05'0 0.0
2015-Aug-24 12:30N 35°37' E 140°05'4 4.1
2015-Aug-24 11:33N 35°34' E 140°02'1615.8
2015-Aug-24 10:33N 35°24' E 139°46'1212.0
2015-Aug-24 09:33N 35°12' E 139°47'1816.7
2015-Aug-24 08:29N 34°58' E 139°33'24114.8
2015-Aug-23 16:16N 34°04' E 134°48'237 4.6
2015-Aug-21 13:21N 34°56' E 139°28'1316.6
2015-Aug-21 12:33N 35°05' E 139°40'1413.6
2015-Aug-21 11:33N 35°18' E 139°44'1414.2
2015-Aug-21 10:34N 35°30' E 139°52'1312.5
2015-Aug-21 09:33N 35°36' E 140°06'0 0.0
2015-Aug-21 08:32N 35°36' E 140°06'0 0.0
2015-Aug-21 07:29N 35°36' E 140°06'0 0.0
2015-Aug-21 06:29N 35°36' E 140°06'1 1.1
2015-Aug-21 05:20N 35°37' E 140°05'0 0.0
2015-Aug-21 04:26N 35°37' E 140°05'0 0.0
2015-Aug-21 03:32N 35°37' E 140°05'0 0.0
2015-Aug-21 02:32N 35°37' E 140°05'0 0.0
2015-Aug-21 01:32N 35°37' E 140°05'0 0.0
2015-Aug-21 00:32N 35°37' E 140°05'0 0.0
2015-Aug-20 23:32N 35°37' E 140°05'0 0.0
2015-Aug-20 22:20N 35°37' E 140°05'0 0.0
2015-Aug-20 21:34N 35°37' E 140°05'1010.3
2015-Aug-20 20:33N 35°31' E 139°55'1514.2
2015-Aug-20 19:32N 35°19' E 139°44'1111.7
2015-Aug-20 18:33N 35°08' E 139°46'  

Dump ship's entire track history